createdAt,value
2023-07-11T00:01:27.557Z,101574.41
2023-07-11T00:03:55.887Z,101571.73
2023-07-11T00:06:24.345Z,101572.48
2023-07-11T00:08:52.600Z,101571.68
2023-07-11T00:11:20.897Z,101572.61
2023-07-11T00:13:52.027Z,101570.56
2023-07-11T00:16:21.225Z,101565.63
2023-07-11T00:18:49.697Z,101562.70
2023-07-11T00:21:18.394Z,101562.55
2023-07-11T00:23:46.767Z,101560.73
2023-07-11T00:26:15.140Z,101559.27
2023-07-11T00:28:43.622Z,101557.69
2023-07-11T00:31:11.863Z,101556.71
2023-07-11T00:33:40.187Z,101558.09
2023-07-11T00:36:09.651Z,101556.17
2023-07-11T00:38:38.368Z,101549.98
2023-07-11T00:41:09.255Z,101545.46
2023-07-11T00:43:37.784Z,101537.89
2023-07-11T00:46:15.750Z,101534.74
2023-07-11T00:48:50.704Z,101530.34
2023-07-11T00:51:26.176Z,101529.96
2023-07-11T00:53:55.206Z,101528.84
2023-07-11T00:56:26.319Z,101525.66
2023-07-11T00:58:55.317Z,101525.94
2023-07-11T01:01:25.698Z,101524.36
2023-07-11T01:03:55.645Z,101520.75
2023-07-11T01:06:29.969Z,101518.98
2023-07-11T01:09:00.528Z,101513.05
2023-07-11T01:11:32.485Z,101506.90
2023-07-11T01:14:00.964Z,101509.09
2023-07-11T01:16:29.310Z,101513.10
2023-07-11T01:18:57.496Z,101517.36
2023-07-11T01:21:25.547Z,101517.28
2023-07-11T01:23:55.224Z,101517.56
2023-07-11T01:26:23.535Z,101520.98
2023-07-11T01:28:51.859Z,101521.52
2023-07-11T01:31:20.345Z,101522.27
2023-07-11T01:33:48.981Z,101520.09
2023-07-11T01:36:17.153Z,101523.35
2023-07-11T01:38:45.321Z,101527.50
2023-07-11T01:41:13.431Z,101532.37
2023-07-11T01:43:41.984Z,101533.02
2023-07-11T01:46:10.276Z,101534.48
2023-07-11T01:48:38.743Z,101534.11
2023-07-11T01:51:06.907Z,101532.11
2023-07-11T01:53:35.193Z,101536.37
2023-07-11T01:56:05.229Z,101535.79
2023-07-11T01:58:34.709Z,101539.27
2023-07-11T02:01:02.978Z,101543.35
2023-07-11T02:03:31.378Z,101542.09
2023-07-11T02:05:59.945Z,101540.50
2023-07-11T02:08:28.043Z,101542.70
2023-07-11T02:10:56.290Z,101543.44
2023-07-11T02:13:24.388Z,101544.55
2023-07-11T02:15:52.828Z,101545.94
2023-07-11T02:18:21.598Z,101551.06
2023-07-11T02:20:50.317Z,101550.10
2023-07-11T02:23:18.636Z,101553.35
2023-07-11T02:25:46.682Z,101554.81
2023-07-11T02:28:14.940Z,101555.85
2023-07-11T02:30:43.957Z,101555.29
2023-07-11T02:33:12.262Z,101553.06
2023-07-11T02:35:40.797Z,101552.55
2023-07-11T02:38:09.072Z,101550.02
2023-07-11T02:40:37.367Z,101551.84
2023-07-11T02:43:05.521Z,101549.44
2023-07-11T02:45:33.695Z,101546.89
2023-07-11T02:48:02.210Z,101550.80
2023-07-11T02:50:30.870Z,101548.27
2023-07-11T02:52:59.332Z,101548.10
2023-07-11T02:55:27.729Z,101547.23
2023-07-11T02:57:56.199Z,101546.21
2023-07-11T03:00:24.400Z,101547.13
2023-07-11T03:02:52.911Z,101549.81
2023-07-11T03:05:21.833Z,101548.80
2023-07-11T03:07:50.643Z,101548.55
2023-07-11T03:10:18.824Z,101544.34
2023-07-11T03:12:47.085Z,101541.45
2023-07-11T03:15:15.265Z,101541.48
2023-07-11T03:17:44.191Z,101537.46
2023-07-11T03:20:12.861Z,101538.29
2023-07-11T03:22:41.113Z,101541.65
2023-07-11T03:25:09.650Z,101541.80
2023-07-11T03:27:37.871Z,101541.65
2023-07-11T03:30:06.981Z,101538.29
2023-07-11T03:32:35.361Z,101538.59
2023-07-11T03:35:04.553Z,101537.23
2023-07-11T03:37:32.722Z,101541.20
2023-07-11T03:40:01.609Z,101541.48
2023-07-11T03:42:29.940Z,101539.69
2023-07-11T03:44:58.264Z,101539.61
2023-07-11T03:47:26.598Z,101534.27
2023-07-11T03:49:54.819Z,101536.30
2023-07-11T03:52:24.122Z,101532.02
2023-07-11T03:54:52.396Z,101533.83
2023-07-11T03:57:20.987Z,101535.80
2023-07-11T03:59:49.236Z,101539.98
2023-07-11T04:02:17.953Z,101544.77
2023-07-11T04:04:46.444Z,101550.20
2023-07-11T04:07:14.694Z,101551.77
2023-07-11T04:09:43.919Z,101547.11
2023-07-11T04:12:12.280Z,101548.30
2023-07-11T04:14:40.773Z,101550.09
2023-07-11T04:17:10.255Z,101549.44
2023-07-11T04:19:38.421Z,101549.00
2023-07-11T04:22:06.599Z,101553.05
2023-07-11T04:24:35.087Z,101555.10
2023-07-11T04:27:03.862Z,101551.63
2023-07-11T04:29:32.140Z,101550.50
2023-07-11T04:32:00.416Z,101546.81
2023-07-11T04:34:28.692Z,101537.16
2023-07-11T04:36:56.869Z,101542.12
2023-07-11T04:39:25.061Z,101540.21
2023-07-11T04:41:53.425Z,101540.02
2023-07-11T04:44:21.691Z,101544.29
2023-07-11T04:46:50.001Z,101546.75
2023-07-11T04:49:18.250Z,101546.84
2023-07-11T04:51:46.412Z,101548.83
2023-07-11T04:54:14.596Z,101555.30
2023-07-11T04:56:42.868Z,101561.61
2023-07-11T04:59:11.039Z,101560.27
2023-07-11T05:01:39.264Z,101561.42
2023-07-11T05:04:07.750Z,101564.23
2023-07-11T05:06:35.988Z,101566.84
2023-07-11T05:09:04.459Z,101568.31
2023-07-11T05:11:32.634Z,101568.73
2023-07-11T05:14:00.927Z,101567.20
2023-07-11T05:16:30.752Z,101568.00
2023-07-11T05:19:00.118Z,101568.84
2023-07-11T05:21:28.935Z,101567.94
2023-07-11T05:23:57.184Z,101569.94
2023-07-11T05:26:25.457Z,101569.73
2023-07-11T05:28:53.738Z,101561.01
2023-07-11T05:31:22.335Z,101564.16
2023-07-11T05:33:53.475Z,101562.55
2023-07-11T05:36:35.952Z,101556.95
2023-07-11T05:39:08.648Z,101555.42
2023-07-11T05:41:38.870Z,101552.06
2023-07-11T05:44:06.886Z,101546.33
2023-07-11T05:46:35.053Z,101541.50
2023-07-11T05:49:04.627Z,101544.83
2023-07-11T05:51:33.111Z,101549.86
2023-07-11T05:54:02.097Z,101550.80
2023-07-11T05:56:30.491Z,101550.34
2023-07-11T05:58:59.180Z,101546.48
2023-07-11T06:01:30.309Z,101547.73
2023-07-11T06:04:13.927Z,101551.16
2023-07-11T06:06:43.548Z,101545.89
2023-07-11T06:09:20.291Z,101549.79
2023-07-11T06:11:50.522Z,101557.14
2023-07-11T06:14:19.800Z,101560.19
2023-07-11T06:16:51.165Z,101558.64
2023-07-11T06:19:20.504Z,101556.17
2023-07-11T06:21:48.778Z,101551.68
2023-07-11T06:24:17.039Z,101547.61
2023-07-11T06:26:45.324Z,101541.02
2023-07-11T06:29:14.929Z,101535.58
2023-07-11T06:31:45.070Z,101531.61
2023-07-11T06:34:13.322Z,101532.32
2023-07-11T06:36:41.498Z,101539.93
2023-07-11T06:39:09.980Z,101543.11
2023-07-11T06:41:39.788Z,101537.95
2023-07-11T06:44:09.682Z,101541.63
2023-07-11T06:46:38.017Z,101538.42
2023-07-11T06:49:06.264Z,101534.33
2023-07-11T06:51:34.948Z,101534.21
2023-07-11T06:54:03.720Z,101530.13
2023-07-11T06:56:34.438Z,101532.52
2023-07-11T06:59:03.005Z,101530.95
2023-07-11T07:01:38.221Z,101525.17
2023-07-11T07:04:07.494Z,101523.10
2023-07-11T07:06:37.016Z,101521.90
2023-07-11T07:09:06.134Z,101520.73
2023-07-11T07:11:36.982Z,101520.95
2023-07-11T07:14:07.787Z,101520.31
2023-07-11T07:16:40.578Z,101514.31
2023-07-11T07:19:11.903Z,101513.14
2023-07-11T07:21:40.581Z,101513.90
2023-07-11T07:24:09.152Z,101516.18
2023-07-11T07:26:37.430Z,101519.61
2023-07-11T07:29:05.808Z,101530.13
2023-07-11T07:31:33.928Z,101526.50
2023-07-11T07:34:02.562Z,101519.27
2023-07-11T07:36:30.655Z,101521.34
2023-07-11T07:38:58.920Z,101516.36
2023-07-11T07:41:28.317Z,101517.83
2023-07-11T07:43:56.907Z,101523.16
2023-07-11T07:46:25.232Z,101523.58
2023-07-11T07:48:53.484Z,101518.94
2023-07-11T07:51:22.156Z,101514.86
2023-07-11T07:53:50.421Z,101516.48
2023-07-11T07:56:22.019Z,101519.45
2023-07-11T07:58:50.552Z,101510.22
2023-07-11T08:01:20.473Z,101506.13
2023-07-11T08:03:49.586Z,101509.77
2023-07-11T08:06:18.905Z,101510.86
2023-07-11T08:08:48.413Z,101507.73
2023-07-11T08:11:19.049Z,101508.58
2023-07-11T08:13:59.240Z,101506.15
2023-07-11T08:16:33.727Z,101500.91
2023-07-11T08:19:07.377Z,101493.40
2023-07-11T08:21:37.533Z,101495.05
2023-07-11T08:24:08.476Z,101489.98
2023-07-11T08:26:37.255Z,101487.58
2023-07-11T08:29:13.127Z,101490.41
2023-07-11T08:31:48.498Z,101489.51
2023-07-11T08:34:16.931Z,101491.52
2023-07-11T08:36:47.773Z,101491.24
2023-07-11T08:39:16.036Z,101483.95
2023-07-11T08:41:49.988Z,101489.77
2023-07-11T08:44:22.928Z,101489.29
2023-07-11T08:47:02.229Z,101485.07
2023-07-11T08:49:41.063Z,101483.80
2023-07-11T08:52:10.929Z,101479.98
2023-07-11T08:55:14.072Z,101475.37
2023-07-11T08:57:48.740Z,101478.15
2023-07-11T09:00:19.089Z,101481.04
2023-07-11T09:03:11.613Z,101475.39
2023-07-11T09:06:09.624Z,101482.34
2023-07-11T09:08:43.196Z,101487.86
2023-07-11T09:11:17.760Z,101490.88
2023-07-11T09:14:21.526Z,101493.27
2023-07-11T09:17:02.570Z,101495.39
2023-07-11T09:19:55.021Z,101492.13
2023-07-11T09:22:49.729Z,101487.31
2023-07-11T09:25:22.914Z,101484.29
2023-07-11T09:28:03.147Z,101480.59
2023-07-11T09:30:49.951Z,101475.73
2023-07-11T09:33:22.213Z,101475.14
2023-07-11T09:35:52.686Z,101467.43
2023-07-11T09:38:26.449Z,101464.58
2023-07-11T09:41:11.932Z,101460.90
2023-07-11T09:43:40.022Z,101457.38
2023-07-11T09:46:16.776Z,101460.48
2023-07-11T09:48:49.578Z,101460.58
2023-07-11T09:51:38.227Z,101456.77
2023-07-11T09:54:24.741Z,101459.86
2023-07-11T09:56:53.905Z,101470.88
2023-07-11T09:59:22.103Z,101464.96
2023-07-11T10:01:56.097Z,101458.19
2023-07-11T10:04:26.525Z,101458.58
2023-07-11T10:07:02.745Z,101453.38
2023-07-11T10:09:34.252Z,101452.95
2023-07-11T10:12:05.440Z,101448.25
2023-07-11T10:14:37.328Z,101449.75
2023-07-11T10:17:20.557Z,101447.50
2023-07-11T10:19:53.401Z,101444.06
2023-07-11T10:22:32.637Z,101442.81
2023-07-11T10:25:23.326Z,101452.02
2023-07-11T10:28:22.615Z,101444.38
2023-07-11T10:30:51.591Z,101440.74
2023-07-11T10:33:33.498Z,101439.20
2023-07-11T10:36:11.600Z,101436.29
2023-07-11T10:38:58.427Z,101428.70
2023-07-11T10:41:40.193Z,101430.58
2023-07-11T10:44:18.109Z,101428.02
2023-07-11T10:46:53.204Z,101431.52
2023-07-11T10:49:38.189Z,101431.42
2023-07-11T10:52:13.774Z,101425.23
2023-07-11T10:55:17.868Z,101430.36
2023-07-11T10:57:54.008Z,101421.88
2023-07-11T11:00:25.568Z,101418.56
2023-07-11T11:03:21.706Z,101423.55
2023-07-11T11:05:58.363Z,101426.80
2023-07-11T11:08:34.561Z,101423.11
2023-07-11T11:11:35.371Z,101416.19
2023-07-11T11:14:11.756Z,101413.80
2023-07-11T11:16:46.075Z,101421.27
2023-07-11T11:19:26.815Z,101421.25
2023-07-11T11:22:11.788Z,101422.30
2023-07-11T11:25:02.245Z,101421.48
2023-07-11T11:28:00.262Z,101418.79
2023-07-11T11:30:47.135Z,101425.75
2023-07-11T11:33:18.112Z,101420.21
2023-07-11T11:36:10.403Z,101422.61
2023-07-11T11:38:45.278Z,101425.00
2023-07-11T11:41:17.434Z,101417.81
2023-07-11T11:51:30.765Z,101419.12
2023-07-11T11:54:19.493Z,101422.77
2023-07-11T11:56:53.703Z,101416.83
2023-07-11T11:59:25.973Z,101420.77
2023-07-11T12:01:54.491Z,101424.85
2023-07-11T12:04:35.340Z,101426.23
2023-07-11T12:07:16.288Z,101415.17
2023-07-11T12:09:49.187Z,101417.85
2023-07-11T12:12:40.694Z,101412.55
2023-07-11T12:15:12.253Z,101416.27
2023-07-11T12:17:40.698Z,101414.69
2023-07-11T12:20:09.455Z,101414.45
2023-07-11T12:22:37.904Z,101411.69
2023-07-11T12:25:07.592Z,101420.20
2023-07-11T12:27:35.998Z,101422.75
2023-07-11T12:30:40.509Z,101420.48
2023-07-11T12:33:33.891Z,101415.61
2023-07-11T12:36:07.828Z,101422.37
2023-07-11T12:38:46.716Z,101421.06
2023-07-11T12:41:44.595Z,101418.73
2023-07-11T12:44:16.885Z,101414.42
2023-07-11T12:46:47.536Z,101409.88
2023-07-11T12:49:37.262Z,101403.21
2023-07-11T12:52:10.090Z,101405.17
2023-07-11T12:54:38.549Z,101406.42
2023-07-11T12:57:14.911Z,101400.11
2023-07-11T12:59:43.174Z,101403.58
2023-07-11T13:02:15.434Z,101401.24
2023-07-11T13:04:58.402Z,101400.77
2023-07-11T13:07:32.446Z,101398.27
2023-07-11T13:10:02.338Z,101391.95
2023-07-11T13:12:37.306Z,101389.54
2023-07-11T13:15:06.837Z,101389.23
2023-07-11T13:17:35.123Z,101381.89
2023-07-11T13:20:04.020Z,101374.96
2023-07-11T13:22:32.474Z,101384.42
2023-07-11T13:25:02.175Z,101380.98
2023-07-11T13:27:35.267Z,101380.52
2023-07-11T13:30:03.758Z,101379.81
2023-07-11T13:32:32.149Z,101385.52
2023-07-11T13:37:48.560Z,101388.38
2023-07-11T13:40:37.837Z,101394.23
2023-07-11T13:43:21.432Z,101393.11
2023-07-11T13:45:51.950Z,101399.42
2023-07-11T13:48:24.314Z,101398.69
2023-07-11T13:51:18.286Z,101396.76
2023-07-11T13:53:53.925Z,101394.95
2023-07-11T13:56:22.917Z,101389.04
2023-07-11T13:58:54.132Z,101388.90
2023-07-11T14:01:26.802Z,101387.09
2023-07-11T14:03:56.882Z,101392.33
2023-07-11T14:06:25.298Z,101396.77
2023-07-11T14:08:53.982Z,101401.86
2023-07-11T14:11:31.268Z,101409.95
2023-07-11T14:13:59.595Z,101431.84
2023-07-11T14:16:28.932Z,101454.90
2023-07-11T14:18:57.233Z,101481.91
2023-07-11T14:21:26.039Z,101502.59
2023-07-11T14:23:54.121Z,101512.62
2023-07-11T14:26:23.088Z,101520.45
2023-07-11T14:28:53.095Z,101531.04
2023-07-11T14:31:23.242Z,101534.95
2023-07-11T14:33:51.596Z,101540.60
2023-07-11T14:36:19.893Z,101542.27
2023-07-11T14:38:48.044Z,101538.86
2023-07-11T14:41:16.208Z,101524.30
2023-07-11T14:43:44.389Z,101506.03
2023-07-11T14:46:12.668Z,101484.78
2023-07-11T14:48:40.841Z,101470.83
2023-07-11T14:51:11.241Z,101452.84
2023-07-11T14:53:43.645Z,101430.04
2023-07-11T14:58:51.642Z,101379.73
2023-07-11T15:01:19.904Z,101375.52
2023-07-11T15:16:29.957Z,101355.22
2023-07-11T15:18:58.207Z,101359.73
2023-07-11T15:21:26.633Z,101365.41
2023-07-11T15:23:54.999Z,101372.25
2023-07-11T15:26:25.995Z,101374.85
2023-07-11T15:28:54.940Z,101381.60
2023-07-11T15:31:23.238Z,101388.65
2023-07-11T15:33:52.179Z,101392.52
2023-07-11T15:36:20.600Z,101387.46
2023-07-11T15:38:48.748Z,101388.27
2023-07-11T15:41:18.994Z,101390.92
2023-07-11T15:43:47.255Z,101386.95
2023-07-11T15:46:22.394Z,101382.86
2023-07-11T15:48:54.415Z,101384.33
2023-07-11T15:51:22.846Z,101383.40
2023-07-11T15:53:52.086Z,101381.23
2023-07-11T15:56:20.405Z,101382.44
2023-07-11T15:58:48.788Z,101384.80
2023-07-11T16:01:16.962Z,101385.98
2023-07-11T16:03:45.306Z,101389.52
2023-07-11T16:06:17.889Z,101388.59
2023-07-11T16:08:46.403Z,101383.30
2023-07-11T16:11:15.507Z,101383.42
2023-07-11T16:13:46.020Z,101377.87
2023-07-11T16:16:19.409Z,101375.56
2023-07-11T16:18:48.036Z,101376.36
2023-07-11T16:21:17.094Z,101373.71
2023-07-11T16:23:45.297Z,101379.77
2023-07-11T16:26:22.970Z,101381.48
2023-07-11T16:28:52.380Z,101374.95
2023-07-11T16:31:20.699Z,101378.34
2023-07-11T16:33:48.919Z,101377.14
2023-07-11T16:36:17.520Z,101377.85
2023-07-11T16:38:45.788Z,101380.87
2023-07-11T16:41:13.970Z,101373.53
2023-07-11T16:43:42.328Z,101368.90
2023-07-11T16:46:18.999Z,101364.38
2023-07-11T16:48:47.909Z,101364.77
2023-07-11T16:51:23.133Z,101360.66
2023-07-11T16:53:51.512Z,101367.45
2023-07-11T16:56:20.006Z,101369.70
2023-07-11T16:58:49.298Z,101374.05
2023-07-11T17:01:20.476Z,101378.91
2023-07-11T17:03:49.015Z,101381.73
2023-07-11T17:06:25.819Z,101388.17
2023-07-11T17:08:55.343Z,101392.29
2023-07-11T17:11:24.089Z,101394.98
2023-07-11T17:13:52.473Z,101397.01
2023-07-11T17:16:25.771Z,101400.31
2023-07-11T17:18:54.126Z,101400.66
2023-07-11T17:21:22.727Z,101397.30
2023-07-11T17:23:50.816Z,101401.22
2023-07-11T17:26:19.172Z,101400.62
2023-07-11T17:28:47.444Z,101402.14
2023-07-11T17:31:16.206Z,101404.16
2023-07-11T17:33:44.717Z,101407.48
2023-07-11T17:36:14.959Z,101408.25
2023-07-11T17:38:43.633Z,101411.98
2023-07-11T17:41:12.003Z,101418.20
2023-07-11T17:43:42.060Z,101416.65
2023-07-11T17:46:39.283Z,101418.48
2023-07-11T17:49:04.777Z,101416.49
2023-07-11T17:51:34.056Z,101420.61
2023-07-11T17:54:02.983Z,101424.25
2023-07-11T17:56:47.492Z,101428.27
2023-07-11T17:59:19.498Z,101431.86
2023-07-11T18:01:48.060Z,101441.00
2023-07-11T18:04:17.046Z,101439.27
2023-07-11T18:06:45.863Z,101439.77
2023-07-11T18:09:14.141Z,101442.22
2023-07-11T18:11:42.514Z,101441.59
2023-07-11T18:14:10.796Z,101438.16
2023-07-11T18:16:39.108Z,101432.77
2023-07-11T18:19:10.211Z,101431.53
2023-07-11T18:21:38.792Z,101439.43
2023-07-11T18:24:07.172Z,101440.11
2023-07-11T18:26:35.446Z,101438.67
2023-07-11T18:29:03.727Z,101433.42
2023-07-11T18:31:32.030Z,101433.84
2023-07-11T18:34:00.384Z,101432.83
2023-07-11T18:36:29.065Z,101432.71
2023-07-11T18:38:57.557Z,101439.13
2023-07-11T18:41:27.619Z,101447.13
2023-07-11T18:43:56.275Z,101450.84
2023-07-11T18:46:25.078Z,101447.38
2023-07-11T18:48:53.316Z,101446.30
2023-07-11T18:51:22.202Z,101440.02
2023-07-11T18:53:50.481Z,101441.61
2023-07-11T18:56:23.358Z,101437.52
2023-07-11T18:58:51.644Z,101435.63
2023-07-11T19:01:20.165Z,101440.72
2023-07-11T19:03:48.642Z,101440.67
2023-07-11T19:06:18.606Z,101435.73
2023-07-11T19:08:48.980Z,101431.20
2023-07-11T19:11:18.816Z,101431.91
2023-07-11T19:13:47.646Z,101434.89
2023-07-11T19:16:23.242Z,101437.83
2023-07-11T19:18:51.778Z,101443.23
2023-07-11T19:21:20.268Z,101449.14
2023-07-11T19:23:49.046Z,101454.10
2023-07-11T19:26:20.295Z,101456.45
2023-07-11T19:28:48.570Z,101458.75
2023-07-11T19:31:17.325Z,101460.52
2023-07-11T19:33:45.849Z,101465.58
2023-07-11T19:36:18.499Z,101471.67
2023-07-11T19:38:46.886Z,101469.80
2023-07-11T19:41:18.269Z,101466.90
2023-07-11T19:43:47.741Z,101466.63
2023-07-11T19:46:19.296Z,101465.96
2023-07-11T19:48:48.028Z,101463.27
2023-07-11T19:51:16.564Z,101461.10
2023-07-11T19:53:45.056Z,101460.05
2023-07-11T19:56:23.120Z,101461.77
2023-07-11T19:58:52.257Z,101462.42
2023-07-11T20:01:21.130Z,101463.42
2023-07-11T20:03:51.757Z,101465.71
2023-07-11T20:06:24.749Z,101478.82
2023-07-11T20:08:54.084Z,101481.81
2023-07-11T20:11:22.436Z,101484.00
2023-07-11T20:13:50.916Z,101482.55
2023-07-11T20:16:24.953Z,101484.73
2023-07-11T20:18:54.350Z,101489.90
2023-07-11T20:21:25.226Z,101485.94
2023-07-11T20:23:54.363Z,101488.07
2023-07-11T20:26:28.446Z,101481.91
2023-07-11T20:29:00.556Z,101475.75
2023-07-11T20:31:28.954Z,101474.35
2023-07-11T20:33:57.809Z,101475.08
2023-07-11T20:36:29.772Z,101476.50
2023-07-11T20:38:59.075Z,101487.51
2023-07-11T20:41:28.204Z,101499.20
2023-07-11T20:44:00.905Z,101493.17
2023-07-11T20:46:30.016Z,101497.51
2023-07-11T20:49:01.566Z,101497.00
2023-07-11T20:51:30.830Z,101502.68
2023-07-11T20:53:59.327Z,101498.45
2023-07-11T20:56:28.578Z,101500.21
2023-07-11T20:58:56.868Z,101499.73
2023-07-11T21:01:26.280Z,101499.29
2023-07-11T21:03:54.646Z,101499.74
2023-07-11T21:06:32.264Z,101499.20
2023-07-11T21:09:02.471Z,101501.77
2023-07-11T21:11:30.730Z,101501.33
2023-07-11T21:13:59.310Z,101502.84
2023-07-11T21:16:32.772Z,101503.72
2023-07-11T21:19:04.816Z,101507.19
2023-07-11T21:21:35.411Z,101502.24
2023-07-11T21:24:04.080Z,101498.34
2023-07-11T21:26:35.699Z,101495.66
2023-07-11T21:29:05.147Z,101493.74
2023-07-11T21:31:33.740Z,101499.14
2023-07-11T21:34:02.867Z,101503.71
2023-07-11T21:36:34.251Z,101507.94
2023-07-11T21:39:04.485Z,101507.02
2023-07-11T21:41:32.771Z,101504.96
2023-07-11T21:44:00.756Z,101506.84
2023-07-11T21:46:32.179Z,101507.34
2023-07-11T21:49:01.643Z,101504.85
2023-07-11T21:51:32.600Z,101501.40
2023-07-11T21:54:01.124Z,101496.41
2023-07-11T21:56:31.104Z,101494.76
2023-07-11T21:59:02.629Z,101497.66
2023-07-11T22:01:31.777Z,101499.23
2023-07-11T22:04:02.057Z,101495.09
2023-07-11T22:06:35.386Z,101500.45
2023-07-11T22:09:04.290Z,101500.55
2023-07-11T22:11:32.462Z,101501.87
2023-07-11T22:14:00.663Z,101500.31
2023-07-11T22:16:30.610Z,101500.23
2023-07-11T22:18:59.395Z,101503.77
2023-07-11T22:21:28.225Z,101505.86
2023-07-11T22:23:59.119Z,101507.92
2023-07-11T22:26:31.571Z,101509.52
2023-07-11T22:29:02.863Z,101514.70
2023-07-11T22:31:32.286Z,101514.52
2023-07-11T22:34:01.000Z,101516.11
2023-07-11T22:36:29.455Z,101513.88
2023-07-11T22:38:57.660Z,101513.98
2023-07-11T22:41:25.941Z,101517.06
2023-07-11T22:43:54.018Z,101517.52
2023-07-11T22:46:22.653Z,101515.19
2023-07-11T22:48:52.165Z,101517.19
2023-07-11T22:51:20.662Z,101518.63
2023-07-11T22:53:49.567Z,101520.80
2023-07-11T22:56:23.979Z,101523.13
2023-07-11T22:58:53.779Z,101526.52
2023-07-11T23:01:23.084Z,101523.50
2023-07-11T23:03:51.861Z,101524.70
2023-07-11T23:06:27.475Z,101524.35
2023-07-11T23:08:56.892Z,101530.73
2023-07-11T23:11:26.440Z,101529.26
2023-07-11T23:13:54.792Z,101531.80
2023-07-11T23:16:31.325Z,101532.66
2023-07-11T23:19:06.258Z,101534.16
2023-07-11T23:21:35.297Z,101532.20
2023-07-11T23:24:03.670Z,101536.03
2023-07-11T23:26:31.844Z,101534.06
2023-07-11T23:29:00.027Z,101536.69
2023-07-11T23:31:28.493Z,101538.87
2023-07-11T23:33:57.177Z,101544.30
2023-07-11T23:36:27.015Z,101549.23
2023-07-11T23:38:56.637Z,101551.54
2023-07-11T23:41:25.077Z,101552.10
2023-07-11T23:43:53.619Z,101551.23
2023-07-11T23:46:27.991Z,101553.13
2023-07-11T23:48:57.726Z,101560.98
2023-07-11T23:51:29.115Z,101561.89
2023-07-11T23:53:58.445Z,101558.88
2023-07-11T23:56:28.474Z,101564.96
2023-07-11T23:58:57.262Z,101572.11
